• Join FlightAware (Why Join?)
  • Login
  • US Flag 
08:11PM EDT


 

Airport Tracker/Info


-or-


 

Live Flight TrackerFlight Track Log ✈ AWE1495 ✈ 16-Jun-2013 ✈ KALB - KCLT

Flight Track Log - Related Links

Times and Time Zones

All times are in EDT time to prevent confusion due to time zone crossing. See the AWE1495 flight status page for this flight to view local times or setup timezone preferences in your user account.

Time Position Orientation Groundspeed Altitude Reporting Facility
EDT Latitude Longitude Course Direction KTS MPH feet Rate Location/Type
03:04PM 42.7194 -73.8078 180° South 186 214 1,500  Level Boston Center
03:05PM 42.6692 -73.8267 195° South 207 238 3,800 2,760 Climbing Boston Center
03:05PM 42.6689 -73.8492 269° West 221 254 5,200 3,360 Climbing Boston Center
03:06PM 42.5244 -74.0460 171° South  Level Estimated
03:06PM 42.6889 -73.9033 297° West 249 287 7,200  Level Boston Center
03:07PM 42.4494 -74.1270 180° South  Level Estimated
03:07PM 42.7275 -73.9778 305° West 243 280 9,700  Level Boston Center
03:08PM 42.3744 -74.2077 170° South  Level Estimated
03:08PM 42.7742 -74.0778 302° West 256 295 13,000  Level Boston Center
03:09PM 42.2993 -74.2883 180° South  Level Estimated
03:09PM 42.7833 -74.1686 278° West 248 285 15,500  Level Boston Center
03:10PM 42.7119 -74.1978 197° South 200 230 17,400 2,220 Climbing Boston Center
03:11PM 42.6189 -74.1442 157° South 264 304 20,000 1,920 Climbing Boston Center
03:12PM 42.5281 -74.0856 155° Southeast 320 368 21,300 1,380 Climbing Boston Center
03:13PM 42.4311 -74.0239 155° Southeast 370 426 22,800 1,500 Climbing Boston Center
03:14PM 42.3278 -73.9567 154° Southeast 409 471 24,300 1,500 Climbing Boston Center
03:15PM 42.2222 -73.8894 155° Southeast 421 484 25,800 1,260 Climbing Boston Center
03:16PM 42.1147 -73.8200 154° Southeast 421 484 27,100 960 Climbing Boston Center
03:17PM 41.9844 -73.7389 155° Southeast 427 491 28,000 720 Climbing Boston Center
03:18PM 41.8781 -73.7394 180° South 397 457 28,600 480 Climbing Boston Center
03:19PM 41.7878 -73.7961 205° Southwest 368 423 29,000 180 Climbing Boston Center
03:20PM 41.6808 -73.8606 204° Southwest 384 442 29,000 720 Level Boston Center
03:22PM 41.4886 -73.9781 205° Southwest 408 470 31,000 1,080 Climbing New York Center
03:23PM 41.3828 -74.0450 205° Southwest 415 478 32,000 480 Climbing New York Center
03:24PM 41.2747 -74.1142 206° Southwest 420 483 32,000 360 Level New York Center
03:25PM 41.1767 -74.1919 211° Southwest 420 483 32,800 780 Climbing New York Center
03:26PM 41.0906 -74.2839 219° Southwest 414 476 33,700 600 Climbing New York Center
03:27PM 41.0106 -74.3842 223° Southwest 407 468 34,000 120 Climbing New York Center
03:28PM 40.9242 -74.4786 220° Southwest 402 463 34,000  Level New York Center
03:29PM 40.8400 -74.5753 221° Southwest 402 463 34,000  Level New York Center
03:30PM 40.7575 -74.6722 222° Southwest 402 463 34,000  Level New York Center
03:31PM 40.6753 -74.7661 221° Southwest 402 463 34,000  Level New York Center
03:32PM 40.5908 -74.8622 221° Southwest 402 463 34,000  Level New York Center
03:33PM 40.5147 -74.9506 221° Southwest 402 463 34,000  Level New York Center
03:34PM 40.4278 -75.0461 220° Southwest 402 463 34,000  Level New York Center
03:35PM 40.3472 -75.1419 222° Southwest 402 463 34,000  Level New York Center
03:36PM 40.2625 -75.2344 220° Southwest 402 463 34,000  Level New York Center
03:37PM 40.1753 -75.3319 221° Southwest 402 463 34,000  Level New York Center
03:38PM 40.0944 -75.4325 224° Southwest 402 463 34,000  Level New York Center
03:39PM 40.0150 -75.5411 226° Southwest 407 468 34,000  Level New York Center
03:40PM 39.9397 -75.6469 227° Southwest 407 468 34,000  Level New York Center
03:41PM 39.8683 -75.7583 230° Southwest 407 468 34,000  Level New York Center
03:42PM 39.7947 -75.8719 230° Southwest 412 474 34,000  Level New York Center
03:43PM 39.7231 -75.9856 231° Southwest 412 474 34,000  Level New York Center
03:45PM 39.5703 -76.2269 231° Southwest 395 455 34,000  Level Washington Center
03:46PM 39.5008 -76.3339 230° Southwest 400 460 34,000  Level Washington Center
03:47PM 39.4294 -76.4433 230° Southwest 400 460 34,000  Level Washington Center
03:48PM 39.3556 -76.5497 228° Southwest 400 460 34,000  Level Washington Center
03:49PM 39.2858 -76.6614 231° Southwest 400 460 34,000  Level Washington Center
03:50PM 39.2161 -76.7703 230° Southwest 400 460 34,000  Level Washington Center
03:51PM 39.1483 -76.8789 231° Southwest 400 460 34,000  Level Washington Center
03:52PM 39.0803 -76.9847 230° Southwest 400 460 34,000  Level Washington Center
03:53PM 39.0022 -77.0847 225° Southwest 395 455 34,000  Level Washington Center
03:54PM 38.9175 -77.1792 221° Southwest 400 460 34,000  Level Washington Center
03:55PM 38.8414 -77.2600 220° Southwest 406 467 34,000  Level Washington Center
03:56PM 38.7525 -77.3567 220° Southwest 411 473 34,000  Level Washington Center
03:57PM 38.6656 -77.4528 221° Southwest 416 479 34,000  Level Washington Center
03:58PM 38.5806 -77.5436 220° Southwest 410 472 34,000  Level Washington Center
03:59PM 38.4958 -77.6369 221° Southwest 410 472 34,000  Level Washington Center
04:00PM 38.4086 -77.7300 220° Southwest 410 472 34,000  Level Washington Center
04:01PM 38.3256 -77.8203 220° Southwest 410 472 34,000  Level Washington Center
04:02PM 38.2383 -77.9128 220° Southwest 410 472 34,000  Level Washington Center
04:03PM 38.1553 -78.0053 221° Southwest 410 472 34,000  Level Washington Center
04:04PM 38.0700 -78.0947 220° Southwest 410 472 34,000  Level Washington Center
04:05PM 37.9864 -78.1975 224° Southwest 404 465 34,000  Level Washington Center
04:06PM 37.9219 -78.2900 229° Southwest 391 450 34,000  Level Washington Center
04:07PM 37.8486 -78.3978 229° Southwest 396 456 34,000  Level Washington Center
04:08PM 37.7750 -78.5003 228° Southwest 401 461 34,000  Level Washington Center
04:09PM 37.7017 -78.6050 229° Southwest 401 461 34,000  Level Washington Center
04:10PM 37.6214 -78.7225 229° Southwest 401 461 34,000 -240 Level Washington Center
04:11PM 37.5356 -78.8158 221° Southwest 401 461 33,600 -600 Descending Washington Center
04:12PM 37.4456 -78.9008 217° Southwest 401 461 32,900 -660 Descending Washington Center
04:13PM 37.3556 -78.9911 219° Southwest 413 475 32,300 -660 Descending Washington Center
04:14PM 37.2739 -79.0736 219° Southwest 419 482 31,600 -660 Descending Washington Center
04:15PM 37.1836 -79.1633 218° Southwest 424 488 31,000 -300 Descending Washington Center
04:16PM 37.0911 -79.2503 217° Southwest 424 488 31,000  Level Washington Center
04:17PM 37.0031 -79.3397 219° Southwest 424 488 31,000  Level Washington Center
04:18PM 36.9039 -79.4386 219° Southwest 419 482 31,000 -480 Level Washington Center
04:19PM 36.8242 -79.5178 218° Southwest 419 482 30,100 -1,020 Descending Washington Center
04:20PM 36.7206 -79.6161 217° Southwest 424 488 29,000 -1,440 Descending Washington Center
04:21PM 36.6275 -79.7122 220° Southwest 429 494 27,300 -1,740 Descending Washington Center
04:24PM 36.3536 -79.9656 217° Southwest 417 480 22,100 -1,380 Descending Atlanta Center
04:25PM 36.2583 -80.0528 216° Southwest 388 447 21,900 -720 Descending Atlanta Center
04:26PM 36.1672 -80.1319 215° Southwest 388 447 20,700 -1,320 Descending Atlanta Center
04:27PM 36.0819 -80.2056 215° Southwest 388 447 19,300 -1,560 Descending Atlanta Center
04:28PM 35.9983 -80.2711 212° Southwest 382 440 17,600 -2,100 Descending Atlanta Center
04:29PM 35.9172 -80.3439 216° Southwest 368 423 15,100 -2,400 Descending Atlanta Center
04:30PM 35.8378 -80.4117 215° Southwest 363 418 12,900 -1,620 Descending Atlanta Center
04:30PM 35.8094 -80.4411 220° Southwest 320 368 12,800 -1,320 Descending Atlanta Center
04:31PM 35.7686 -80.4711 211° Southwest 343 395 11,600 -1,800 Descending Atlanta Center
04:31PM 35.7381 -80.4981 216° Southwest 295 339 11,000 -1,200 Descending Atlanta Center
04:32PM 35.6972 -80.5253 208° Southwest 310 357 10,400 -1,320 Descending Atlanta Center
04:32PM 35.6642 -80.5419 202° Southwest 293 337 9,700 -1,500 Descending Atlanta Center
04:33PM 35.6292 -80.5589 201° Southwest 297 342 8,900 -1,980 Descending Atlanta Center
04:33PM 35.5964 -80.5781 205° Southwest 288 331 7,900 -2,040 Descending Atlanta Center
04:34PM 35.5572 -80.5950 199° South 291 335 6,900 -1,800 Descending Atlanta Center
04:34PM 35.5244 -80.6144 206° Southwest 281 323 6,100 -900 Descending Atlanta Center
04:35PM 35.4875 -80.6311 200° South 284 327 6,000 -120 Descending Atlanta Center
04:35PM 35.4503 -80.6531 206° Southwest 262 302 6,000  Level Atlanta Center
04:36PM 35.4214 -80.6644 198° South 269 310 6,000 -240 Level Atlanta Center
04:36PM 35.3953 -80.6961 225° Southwest 237 273 5,800 -900 Descending Atlanta Center
04:37PM 35.3750 -80.7200 224° Southwest 246 283 5,100 -1,440 Descending Atlanta Center
04:37PM 35.3489 -80.7592 231° Southwest 231 266 4,200 -1,200 Descending Atlanta Center
04:38PM 35.3289 -80.7853 227° Southwest 236 272 3,900 -720 Descending Atlanta Center